sensor_id;sensor_type;location;lat;lon;timestamp;temperature;humidity
62573;DHT22;48626;51.678;5.806;2022-09-29T00:01:29;6.80;99.90
62573;DHT22;48626;51.678;5.806;2022-09-29T00:03:54;6.80;99.90
62573;DHT22;48626;51.678;5.806;2022-09-29T00:06:20;6.80;99.90
62573;DHT22;48626;51.678;5.806;2022-09-29T00:08:46;6.80;99.90
62573;DHT22;48626;51.678;5.806;2022-09-29T00:11:17;6.70;99.90
62573;DHT22;48626;51.678;5.806;2022-09-29T00:13:44;6.70;99.90
62573;DHT22;48626;51.678;5.806;2022-09-29T00:16:10;6.70;99.90
62573;DHT22;48626;51.678;5.806;2022-09-29T00:18:36;6.70;99.90
62573;DHT22;48626;51.678;5.806;2022-09-29T00:21:13;6.70;99.90
62573;DHT22;48626;51.678;5.806;2022-09-29T00:23:39;6.70;99.90
62573;DHT22;48626;51.678;5.806;2022-09-29T00:26:10;6.70;99.90
62573;DHT22;48626;51.678;5.806;2022-09-29T00:28:37;6.60;99.90
62573;DHT22;48626;51.678;5.806;2022-09-29T00:31:06;6.60;99.90
62573;DHT22;48626;51.678;5.806;2022-09-29T00:33:33;6.60;99.90
62573;DHT22;48626;51.678;5.806;2022-09-29T00:36:01;6.60;99.90
62573;DHT22;48626;51.678;5.806;2022-09-29T00:38:27;6.50;99.90
62573;DHT22;48626;51.678;5.806;2022-09-29T00:40:53;6.50;99.90
62573;DHT22;48626;51.678;5.806;2022-09-29T00:43:22;6.50;99.90
62573;DHT22;48626;51.678;5.806;2022-09-29T00:45:52;6.50;99.90
62573;DHT22;48626;51.678;5.806;2022-09-29T00:48:24;6.50;99.90
62573;DHT22;48626;51.678;5.806;2022-09-29T00:50:52;6.50;99.90
62573;DHT22;48626;51.678;5.806;2022-09-29T00:53:20;6.40;99.90
62573;DHT22;48626;51.678;5.806;2022-09-29T00:55:53;6.40;99.90
62573;DHT22;48626;51.678;5.806;2022-09-29T00:58:33;6.40;99.90
62573;DHT22;48626;51.678;5.806;2022-09-29T01:01:00;6.40;99.90
62573;DHT22;48626;51.678;5.806;2022-09-29T01:03:32;6.30;99.90
62573;DHT22;48626;51.678;5.806;2022-09-29T01:06:07;6.30;99.90
62573;DHT22;48626;51.678;5.806;2022-09-29T01:08:46;6.30;99.90
62573;DHT22;48626;51.678;5.806;2022-09-29T01:11:13;6.30;99.90
62573;DHT22;48626;51.678;5.806;2022-09-29T01:13:40;6.30;99.90
62573;DHT22;48626;51.678;5.806;2022-09-29T01:16:06;6.30;99.90
62573;DHT22;48626;51.678;5.806;2022-09-29T01:18:32;6.20;99.90
62573;DHT22;48626;51.678;5.806;2022-09-29T01:38:01;6.10;99.90
62573;DHT22;48626;51.678;5.806;2022-09-29T01:40:53;6.00;99.90
62573;DHT22;48626;51.678;5.806;2022-09-29T01:43:30;6.00;99.90
62573;DHT22;48626;51.678;5.806;2022-09-29T01:48:32;6.00;99.90
62573;DHT22;48626;51.678;5.806;2022-09-29T01:51:04;6.10;99.90
62573;DHT22;48626;51.678;5.806;2022-09-29T01:53:42;6.00;99.90
62573;DHT22;48626;51.678;5.806;2022-09-29T01:56:18;6.00;99.90
62573;DHT22;48626;51.678;5.806;2022-09-29T01:58:57;6.00;99.90
62573;DHT22;48626;51.678;5.806;2022-09-29T02:01:27;6.00;99.90
62573;DHT22;48626;51.678;5.806;2022-09-29T02:04:03;6.00;99.90
62573;DHT22;48626;51.678;5.806;2022-09-29T02:06:40;6.00;99.90
62573;DHT22;48626;51.678;5.806;2022-09-29T02:09:15;6.00;99.90
62573;DHT22;48626;51.678;5.806;2022-09-29T02:11:44;5.90;99.90
62573;DHT22;48626;51.678;5.806;2022-09-29T02:14:18;5.90;99.90
62573;DHT22;48626;51.678;5.806;2022-09-29T02:16:48;5.90;99.90
62573;DHT22;48626;51.678;5.806;2022-09-29T02:19:24;5.90;99.90
62573;DHT22;48626;51.678;5.806;2022-09-29T02:21:51;5.90;99.90
62573;DHT22;48626;51.678;5.806;2022-09-29T02:24:19;5.80;99.90
62573;DHT22;48626;51.678;5.806;2022-09-29T02:26:46;5.80;99.90
62573;DHT22;48626;51.678;5.806;2022-09-29T02:29:12;5.80;99.90
62573;DHT22;48626;51.678;5.806;2022-09-29T02:31:39;5.90;99.90
62573;DHT22;48626;51.678;5.806;2022-09-29T02:34:07;5.80;99.90
62573;DHT22;48626;51.678;5.806;2022-09-29T02:56:33;5.70;99.90
62573;DHT22;48626;51.678;5.806;2022-09-29T02:59:11;5.70;99.90
62573;DHT22;48626;51.678;5.806;2022-09-29T03:01:55;5.60;99.90
62573;DHT22;48626;51.678;5.806;2022-09-29T03:04:24;5.60;99.90
62573;DHT22;48626;51.678;5.806;2022-09-29T03:06:50;5.70;99.90
62573;DHT22;48626;51.678;5.806;2022-09-29T03:09:16;5.60;99.90
62573;DHT22;48626;51.678;5.806;2022-09-29T03:11:42;5.60;99.90
62573;DHT22;48626;51.678;5.806;2022-09-29T03:14:08;5.60;99.90
62573;DHT22;48626;51.678;5.806;2022-09-29T03:16:34;5.60;99.90
62573;DHT22;48626;51.678;5.806;2022-09-29T03:19:01;5.60;99.90
62573;DHT22;48626;51.678;5.806;2022-09-29T03:21:27;5.60;99.90
62573;DHT22;48626;51.678;5.806;2022-09-29T03:23:54;5.60;99.90
62573;DHT22;48626;51.678;5.806;2022-09-29T03:26:19;5.60;99.90
62573;DHT22;48626;51.678;5.806;2022-09-29T03:28:45;5.60;99.90
62573;DHT22;48626;51.678;5.806;2022-09-29T03:31:11;5.50;99.90
62573;DHT22;48626;51.678;5.806;2022-09-29T03:33:37;5.50;99.90
62573;DHT22;48626;51.678;5.806;2022-09-29T03:36:04;5.50;99.90
62573;DHT22;48626;51.678;5.806;2022-09-29T03:38:31;5.40;99.90
62573;DHT22;48626;51.678;5.806;2022-09-29T03:40:57;5.40;99.90
62573;DHT22;48626;51.678;5.806;2022-09-29T03:43:23;5.40;99.90
62573;DHT22;48626;51.678;5.806;2022-09-29T03:45:50;5.40;99.90
62573;DHT22;48626;51.678;5.806;2022-09-29T03:48:17;5.40;99.90
62573;DHT22;48626;51.678;5.806;2022-09-29T03:50:44;5.40;99.90
62573;DHT22;48626;51.678;5.806;2022-09-29T03:53:10;5.40;99.90
62573;DHT22;48626;51.678;5.806;2022-09-29T03:55:35;5.50;99.90
62573;DHT22;48626;51.678;5.806;2022-09-29T03:58:01;5.40;99.90
62573;DHT22;48626;51.678;5.806;2022-09-29T04:00:27;5.40;99.90
62573;DHT22;48626;51.678;5.806;2022-09-29T04:02:53;5.40;99.90
62573;DHT22;48626;51.678;5.806;2022-09-29T04:05:19;5.40;99.90
62573;DHT22;48626;51.678;5.806;2022-09-29T04:07:45;5.40;99.90
62573;DHT22;48626;51.678;5.806;2022-09-29T04:10:11;5.30;99.90
62573;DHT22;48626;51.678;5.806;2022-09-29T04:12:36;5.30;99.90
62573;DHT22;48626;51.678;5.806;2022-09-29T04:15:03;5.40;99.90
62573;DHT22;48626;51.678;5.806;2022-09-29T04:17:28;5.30;99.90
62573;DHT22;48626;51.678;5.806;2022-09-29T04:19:54;5.30;99.90
62573;DHT22;48626;51.678;5.806;2022-09-29T04:22:20;5.20;99.90
62573;DHT22;48626;51.678;5.806;2022-09-29T04:24:46;5.30;99.90
62573;DHT22;48626;51.678;5.806;2022-09-29T04:27:13;5.20;99.90
62573;DHT22;48626;51.678;5.806;2022-09-29T04:29:39;5.20;99.90
62573;DHT22;48626;51.678;5.806;2022-09-29T04:32:05;5.20;99.90
62573;DHT22;48626;51.678;5.806;2022-09-29T04:34:31;5.20;99.90
62573;DHT22;48626;51.678;5.806;2022-09-29T04:36:57;5.20;99.90
62573;DHT22;48626;51.678;5.806;2022-09-29T04:39:23;5.20;99.90
62573;DHT22;48626;51.678;5.806;2022-09-29T04:41:48;5.20;99.90
62573;DHT22;48626;51.678;5.806;2022-09-29T04:44:14;5.10;99.90
62573;DHT22;48626;51.678;5.806;2022-09-29T04:46:40;5.10;99.90
62573;DHT22;48626;51.678;5.806;2022-09-29T04:49:05;5.10;99.90
62573;DHT22;48626;51.678;5.806;2022-09-29T04:51:31;5.10;99.90
62573;DHT22;48626;51.678;5.806;2022-09-29T04:53:57;5.10;99.90
62573;DHT22;48626;51.678;5.806;2022-09-29T04:56:23;5.10;99.90
62573;DHT22;48626;51.678;5.806;2022-09-29T04:58:49;5.10;99.90
62573;DHT22;48626;51.678;5.806;2022-09-29T05:01:15;5.10;99.90
62573;DHT22;48626;51.678;5.806;2022-09-29T05:03:41;5.10;99.90
62573;DHT22;48626;51.678;5.806;2022-09-29T05:06:07;5.10;99.90
62573;DHT22;48626;51.678;5.806;2022-09-29T05:08:34;5.10;99.90
62573;DHT22;48626;51.678;5.806;2022-09-29T05:11:07;5.10;99.90
62573;DHT22;48626;51.678;5.806;2022-09-29T05:13:34;5.10;99.90
62573;DHT22;48626;51.678;5.806;2022-09-29T05:16:00;5.10;99.90
62573;DHT22;48626;51.678;5.806;2022-09-29T05:18:26;5.10;99.90
62573;DHT22;48626;51.678;5.806;2022-09-29T05:20:52;5.10;99.90
62573;DHT22;48626;51.678;5.806;2022-09-29T05:23:18;5.10;99.90
62573;DHT22;48626;51.678;5.806;2022-09-29T05:25:44;5.10;99.90
62573;DHT22;48626;51.678;5.806;2022-09-29T05:28:10;5.10;99.90
62573;DHT22;48626;51.678;5.806;2022-09-29T05:30:37;5.10;99.90
62573;DHT22;48626;51.678;5.806;2022-09-29T05:33:03;5.10;99.90
62573;DHT22;48626;51.678;5.806;2022-09-29T05:35:28;5.00;99.90
62573;DHT22;48626;51.678;5.806;2022-09-29T05:37:54;5.00;99.90
62573;DHT22;48626;51.678;5.806;2022-09-29T05:40:20;5.00;99.90
62573;DHT22;48626;51.678;5.806;2022-09-29T05:42:49;5.00;99.90
62573;DHT22;48626;51.678;5.806;2022-09-29T05:45:14;5.00;99.90
62573;DHT22;48626;51.678;5.806;2022-09-29T05:47:44;5.10;99.90
62573;DHT22;48626;51.678;5.806;2022-09-29T05:50:13;5.10;99.90
62573;DHT22;48626;51.678;5.806;2022-09-29T05:52:39;5.10;99.90
62573;DHT22;48626;51.678;5.806;2022-09-29T05:55:05;5.10;99.90
62573;DHT22;48626;51.678;5.806;2022-09-29T05:57:34;5.10;99.90
62573;DHT22;48626;51.678;5.806;2022-09-29T06:00:00;5.10;99.90
62573;DHT22;48626;51.678;5.806;2022-09-29T06:02:26;5.10;99.90
62573;DHT22;48626;51.678;5.806;2022-09-29T06:04:52;5.10;99.90
62573;DHT22;48626;51.678;5.806;2022-09-29T06:07:17;5.20;99.90
62573;DHT22;48626;51.678;5.806;2022-09-29T06:09:43;5.20;99.90
62573;DHT22;48626;51.678;5.806;2022-09-29T06:12:09;5.20;99.90
62573;DHT22;48626;51.678;5.806;2022-09-29T06:14:34;5.30;99.90
62573;DHT22;48626;51.678;5.806;2022-09-29T06:17:00;5.30;99.90
62573;DHT22;48626;51.678;5.806;2022-09-29T06:19:25;5.30;99.90
62573;DHT22;48626;51.678;5.806;2022-09-29T06:21:51;5.40;99.90
62573;DHT22;48626;51.678;5.806;2022-09-29T06:24:17;5.40;99.90
62573;DHT22;48626;51.678;5.806;2022-09-29T06:26:43;5.40;99.90
62573;DHT22;48626;51.678;5.806;2022-09-29T06:29:08;5.50;99.90
62573;DHT22;48626;51.678;5.806;2022-09-29T06:31:34;5.50;99.90
62573;DHT22;48626;51.678;5.806;2022-09-29T06:34:01;5.50;99.90
62573;DHT22;48626;51.678;5.806;2022-09-29T06:39:19;5.60;99.90
62573;DHT22;48626;51.678;5.806;2022-09-29T06:41:45;5.70;99.90
62573;DHT22;48626;51.678;5.806;2022-09-29T06:44:22;5.80;99.90
62573;DHT22;48626;51.678;5.806;2022-09-29T06:46:51;5.80;99.90
62573;DHT22;48626;51.678;5.806;2022-09-29T06:49:17;5.80;99.90
62573;DHT22;48626;51.678;5.806;2022-09-29T06:51:44;5.90;99.90
62573;DHT22;48626;51.678;5.806;2022-09-29T06:54:14;5.90;99.90
62573;DHT22;48626;51.678;5.806;2022-09-29T06:56:39;6.00;99.90
62573;DHT22;48626;51.678;5.806;2022-09-29T06:59:06;6.00;99.90
62573;DHT22;48626;51.678;5.806;2022-09-29T07:01:31;6.00;99.90
62573;DHT22;48626;51.678;5.806;2022-09-29T07:03:57;6.10;99.90
62573;DHT22;48626;51.678;5.806;2022-09-29T07:06:25;6.20;99.90
62573;DHT22;48626;51.678;5.806;2022-09-29T07:08:55;6.20;99.90
62573;DHT22;48626;51.678;5.806;2022-09-29T07:11:21;6.30;99.90
62573;DHT22;48626;51.678;5.806;2022-09-29T07:13:48;6.30;99.90
62573;DHT22;48626;51.678;5.806;2022-09-29T07:16:14;6.40;99.90
62573;DHT22;48626;51.678;5.806;2022-09-29T07:18:41;6.50;99.90
62573;DHT22;48626;51.678;5.806;2022-09-29T07:21:09;6.60;99.90
62573;DHT22;48626;51.678;5.806;2022-09-29T07:23:35;6.60;99.90
62573;DHT22;48626;51.678;5.806;2022-09-29T07:26:01;6.70;99.90
62573;DHT22;48626;51.678;5.806;2022-09-29T07:28:28;6.80;99.90
62573;DHT22;48626;51.678;5.806;2022-09-29T07:31:02;6.90;99.90
62573;DHT22;48626;51.678;5.806;2022-09-29T07:33:29;7.00;99.90
62573;DHT22;48626;51.678;5.806;2022-09-29T07:35:55;7.20;99.90
62573;DHT22;48626;51.678;5.806;2022-09-29T07:38:22;7.30;99.90
62573;DHT22;48626;51.678;5.806;2022-09-29T07:40:48;7.40;99.90
62573;DHT22;48626;51.678;5.806;2022-09-29T07:43:13;7.50;99.90
62573;DHT22;48626;51.678;5.806;2022-09-29T07:45:48;7.60;99.90
62573;DHT22;48626;51.678;5.806;2022-09-29T07:48:14;7.80;99.90
62573;DHT22;48626;51.678;5.806;2022-09-29T07:50:40;7.90;99.90
62573;DHT22;48626;51.678;5.806;2022-09-29T07:53:06;8.10;99.90
62573;DHT22;48626;51.678;5.806;2022-09-29T07:55:32;8.20;99.90
62573;DHT22;48626;51.678;5.806;2022-09-29T07:57:58;8.40;99.90
62573;DHT22;48626;51.678;5.806;2022-09-29T08:00:25;8.50;99.90
62573;DHT22;48626;51.678;5.806;2022-09-29T08:02:51;8.60;99.90
62573;DHT22;48626;51.678;5.806;2022-09-29T08:05:16;8.80;99.90
62573;DHT22;48626;51.678;5.806;2022-09-29T08:07:42;8.90;99.90
62573;DHT22;48626;51.678;5.806;2022-09-29T08:10:08;9.00;99.90
62573;DHT22;48626;51.678;5.806;2022-09-29T08:12:34;9.10;99.90
62573;DHT22;48626;51.678;5.806;2022-09-29T08:14:59;9.30;99.90
62573;DHT22;48626;51.678;5.806;2022-09-29T08:17:25;9.40;99.90
62573;DHT22;48626;51.678;5.806;2022-09-29T08:19:50;9.50;99.90
62573;DHT22;48626;51.678;5.806;2022-09-29T08:22:16;9.60;99.90
62573;DHT22;48626;51.678;5.806;2022-09-29T08:24:42;9.60;99.90
62573;DHT22;48626;51.678;5.806;2022-09-29T08:27:07;9.80;99.90
62573;DHT22;48626;51.678;5.806;2022-09-29T08:29:33;9.90;99.90
62573;DHT22;48626;51.678;5.806;2022-09-29T08:31:59;10.00;99.90
62573;DHT22;48626;51.678;5.806;2022-09-29T08:34:24;10.10;99.90
62573;DHT22;48626;51.678;5.806;2022-09-29T08:36:50;10.20;99.90
62573;DHT22;48626;51.678;5.806;2022-09-29T08:39:17;10.30;99.90
62573;DHT22;48626;51.678;5.806;2022-09-29T08:44:31;10.50;99.90
62573;DHT22;48626;51.678;5.806;2022-09-29T08:47:03;10.70;99.90
62573;DHT22;48626;51.678;5.806;2022-09-29T08:49:46;10.70;99.90
62573;DHT22;48626;51.678;5.806;2022-09-29T08:52:19;10.80;99.90
62573;DHT22;48626;51.678;5.806;2022-09-29T08:54:48;10.90;99.90
62573;DHT22;48626;51.678;5.806;2022-09-29T08:57:17;11.10;99.90
62573;DHT22;48626;51.678;5.806;2022-09-29T08:59:51;11.20;99.90
62573;DHT22;48626;51.678;5.806;2022-09-29T09:20:52;12.10;99.90
62573;DHT22;48626;51.678;5.806;2022-09-29T09:26:02;12.20;99.90
62573;DHT22;48626;51.678;5.806;2022-09-29T09:28:33;12.30;99.90
62573;DHT22;48626;51.678;5.806;2022-09-29T09:31:32;12.40;99.90
62573;DHT22;48626;51.678;5.806;2022-09-29T09:34:03;12.50;99.90
62573;DHT22;48626;51.678;5.806;2022-09-29T09:36:56;12.70;99.90
62573;DHT22;48626;51.678;5.806;2022-09-29T09:39:30;12.90;99.90
62573;DHT22;48626;51.678;5.806;2022-09-29T09:41:58;13.30;99.90
62573;DHT22;48626;51.678;5.806;2022-09-29T09:44:39;13.60;99.90
62573;DHT22;48626;51.678;5.806;2022-09-29T09:47:25;14.10;99.90
62573;DHT22;48626;51.678;5.806;2022-09-29T09:50:11;14.40;99.90
62573;DHT22;48626;51.678;5.806;2022-09-29T09:55:23;15.00;99.90
62573;DHT22;48626;51.678;5.806;2022-09-29T10:00:47;15.50;99.90
62573;DHT22;48626;51.678;5.806;2022-09-29T10:03:13;15.70;99.90
62573;DHT22;48626;51.678;5.806;2022-09-29T10:05:42;16.00;99.90
62573;DHT22;48626;51.678;5.806;2022-09-29T10:08:14;16.50;99.90
62573;DHT22;48626;51.678;5.806;2022-09-29T10:10:41;16.90;99.90
62573;DHT22;48626;51.678;5.806;2022-09-29T10:13:13;17.20;99.90
62573;DHT22;48626;51.678;5.806;2022-09-29T10:15:47;17.50;99.90
62573;DHT22;48626;51.678;5.806;2022-09-29T10:18:39;17.80;98.80
62573;DHT22;48626;51.678;5.806;2022-09-29T10:23:58;18.30;98.00
62573;DHT22;48626;51.678;5.806;2022-09-29T10:29:03;18.60;94.70
62573;DHT22;48626;51.678;5.806;2022-09-29T10:31:41;18.30;92.40
62573;DHT22;48626;51.678;5.806;2022-09-29T10:34:21;18.50;93.80
62573;DHT22;48626;51.678;5.806;2022-09-29T10:39:41;19.00;89.50
62573;DHT22;48626;51.678;5.806;2022-09-29T10:42:25;19.30;89.70
62573;DHT22;48626;51.678;5.806;2022-09-29T10:45:19;19.10;88.60
62573;DHT22;48626;51.678;5.806;2022-09-29T10:50:24;18.20;89.00
62573;DHT22;48626;51.678;5.806;2022-09-29T10:52:56;17.80;89.30
62573;DHT22;48626;51.678;5.806;2022-09-29T10:55:28;17.20;87.60
62573;DHT22;48626;51.678;5.806;2022-09-29T10:57:56;16.90;89.90
62573;DHT22;48626;51.678;5.806;2022-09-29T11:00:34;17.20;90.60
62573;DHT22;48626;51.678;5.806;2022-09-29T11:03:24;17.00;90.10
62573;DHT22;48626;51.678;5.806;2022-09-29T11:05:52;16.90;88.80
62573;DHT22;48626;51.678;5.806;2022-09-29T11:08:19;17.70;92.20
62573;DHT22;48626;51.678;5.806;2022-09-29T11:11:05;18.00;91.20
62573;DHT22;48626;51.678;5.806;2022-09-29T11:13:38;17.60;90.40
62573;DHT22;48626;51.678;5.806;2022-09-29T11:16:15;17.20;90.20
62573;DHT22;48626;51.678;5.806;2022-09-29T11:18:47;17.00;91.00
62573;DHT22;48626;51.678;5.806;2022-09-29T11:26:38;16.40;91.30
62573;DHT22;48626;51.678;5.806;2022-09-29T11:32:09;18.60;94.20
62573;DHT22;48626;51.678;5.806;2022-09-29T11:35:11;19.80;93.60
62573;DHT22;48626;51.678;5.806;2022-09-29T11:41:04;20.60;89.10
62573;DHT22;48626;51.678;5.806;2022-09-29T11:43:49;20.40;88.60
62573;DHT22;48626;51.678;5.806;2022-09-29T11:49:18;22.00;85.80
62573;DHT22;48626;51.678;5.806;2022-09-29T11:52:49;22.80;82.90
62573;DHT22;48626;51.678;5.806;2022-09-29T11:55:24;22.50;68.20
62573;DHT22;48626;51.678;5.806;2022-09-29T12:17:35;22.10;71.20
62573;DHT22;48626;51.678;5.806;2022-09-29T12:20:05;22.30;75.90
62573;DHT22;48626;51.678;5.806;2022-09-29T12:22:31;23.20;77.70
62573;DHT22;48626;51.678;5.806;2022-09-29T12:24:58;24.20;76.50
62573;DHT22;48626;51.678;5.806;2022-09-29T12:27:28;23.20;73.10
62573;DHT22;48626;51.678;5.806;2022-09-29T12:30:04;22.20;66.20
62573;DHT22;48626;51.678;5.806;2022-09-29T12:32:35;21.20;70.80
62573;DHT22;48626;51.678;5.806;2022-09-29T12:35:14;20.70;73.30
62573;DHT22;48626;51.678;5.806;2022-09-29T12:40:19;19.90;67.90
62573;DHT22;48626;51.678;5.806;2022-09-29T12:45:21;19.60;78.60
62573;DHT22;48626;51.678;5.806;2022-09-29T12:53:38;19.40;74.30
62573;DHT22;48626;51.678;5.806;2022-09-29T12:56:18;18.80;75.10
62573;DHT22;48626;51.678;5.806;2022-09-29T12:58:47;18.60;77.50
62573;DHT22;48626;51.678;5.806;2022-09-29T13:01:27;18.60;78.10
62573;DHT22;48626;51.678;5.806;2022-09-29T13:04:37;20.00;78.50
62573;DHT22;48626;51.678;5.806;2022-09-29T13:07:26;21.70;77.90
62573;DHT22;48626;51.678;5.806;2022-09-29T13:10:04;22.90;73.20
62573;DHT22;48626;51.678;5.806;2022-09-29T13:13:03;23.90;69.40
62573;DHT22;48626;51.678;5.806;2022-09-29T13:28:52;22.30;60.80
62573;DHT22;48626;51.678;5.806;2022-09-29T13:31:24;21.70;64.50
62573;DHT22;48626;51.678;5.806;2022-09-29T13:33:53;21.10;64.10
62573;DHT22;48626;51.678;5.806;2022-09-29T13:36:33;20.70;65.00
62573;DHT22;48626;51.678;5.806;2022-09-29T13:39:05;20.40;64.10
62573;DHT22;48626;51.678;5.806;2022-09-29T13:41:34;20.00;62.20
62573;DHT22;48626;51.678;5.806;2022-09-29T13:54:36;19.60;67.70
62573;DHT22;48626;51.678;5.806;2022-09-29T13:59:42;19.10;66.90
62573;DHT22;48626;51.678;5.806;2022-09-29T14:05:51;18.80;65.80
62573;DHT22;48626;51.678;5.806;2022-09-29T14:08:07;18.50;64.70
62573;DHT22;48626;51.678;5.806;2022-09-29T14:10:50;18.30;65.40
62573;DHT22;48626;51.678;5.806;2022-09-29T14:13:30;18.10;66.70
62573;DHT22;48626;51.678;5.806;2022-09-29T14:16:19;17.90;68.30
62573;DHT22;48626;51.678;5.806;2022-09-29T14:19:09;17.70;66.00
62573;DHT22;48626;51.678;5.806;2022-09-29T14:21:53;17.50;68.30
62573;DHT22;48626;51.678;5.806;2022-09-29T14:29:43;17.10;70.70
62573;DHT22;48626;51.678;5.806;2022-09-29T14:32:17;17.00;71.30
62573;DHT22;48626;51.678;5.806;2022-09-29T14:34:45;17.00;72.60
62573;DHT22;48626;51.678;5.806;2022-09-29T14:37:21;16.90;73.10
62573;DHT22;48626;51.678;5.806;2022-09-29T14:39:49;16.80;73.70
62573;DHT22;48626;51.678;5.806;2022-09-29T14:42:34;16.80;74.70
62573;DHT22;48626;51.678;5.806;2022-09-29T14:45:02;16.70;75.40
62573;DHT22;48626;51.678;5.806;2022-09-29T14:47:57;16.60;74.50
62573;DHT22;48626;51.678;5.806;2022-09-29T14:51:11;16.70;74.50
62573;DHT22;48626;51.678;5.806;2022-09-29T15:02:23;16.90;72.70
62573;DHT22;48626;51.678;5.806;2022-09-29T15:04:50;16.80;73.30
62573;DHT22;48626;51.678;5.806;2022-09-29T15:07:18;16.90;73.20
62573;DHT22;48626;51.678;5.806;2022-09-29T15:09:56;16.80;72.30
62573;DHT22;48626;51.678;5.806;2022-09-29T15:12:25;16.90;72.50
62573;DHT22;48626;51.678;5.806;2022-09-29T15:14:56;16.90;72.10
62573;DHT22;48626;51.678;5.806;2022-09-29T15:20:31;16.70;72.60
62573;DHT22;48626;51.678;5.806;2022-09-29T15:23:28;16.60;71.50
62573;DHT22;48626;51.678;5.806;2022-09-29T15:25:57;16.50;71.70
62573;DHT22;48626;51.678;5.806;2022-09-29T15:28:34;16.40;71.60
62573;DHT22;48626;51.678;5.806;2022-09-29T15:31:05;16.30;71.20
62573;DHT22;48626;51.678;5.806;2022-09-29T15:33:38;16.30;71.50
62573;DHT22;48626;51.678;5.806;2022-09-29T15:36:20;16.20;71.90
62573;DHT22;48626;51.678;5.806;2022-09-29T15:38:53;16.10;71.80
62573;DHT22;48626;51.678;5.806;2022-09-29T15:41:21;16.10;71.40
62573;DHT22;48626;51.678;5.806;2022-09-29T15:43:56;16.10;72.20
62573;DHT22;48626;51.678;5.806;2022-09-29T15:46:24;16.10;70.60
62573;DHT22;48626;51.678;5.806;2022-09-29T15:49:18;16.10;71.40
62573;DHT22;48626;51.678;5.806;2022-09-29T15:52:06;16.10;71.50
62573;DHT22;48626;51.678;5.806;2022-09-29T15:54:41;16.00;72.10
62573;DHT22;48626;51.678;5.806;2022-09-29T15:57:41;16.00;72.00
62573;DHT22;48626;51.678;5.806;2022-09-29T16:03:08;15.80;73.20
62573;DHT22;48626;51.678;5.806;2022-09-29T16:05:38;15.80;72.90
62573;DHT22;48626;51.678;5.806;2022-09-29T16:08:15;15.70;73.30
62573;DHT22;48626;51.678;5.806;2022-09-29T16:10:54;15.70;73.50
62573;DHT22;48626;51.678;5.806;2022-09-29T16:13:23;15.60;74.10
62573;DHT22;48626;51.678;5.806;2022-09-29T16:15:55;15.50;74.70
62573;DHT22;48626;51.678;5.806;2022-09-29T16:18:43;15.50;74.50
62573;DHT22;48626;51.678;5.806;2022-09-29T16:21:21;15.50;74.50
62573;DHT22;48626;51.678;5.806;2022-09-29T16:26:48;15.50;75.40
62573;DHT22;48626;51.678;5.806;2022-09-29T16:31:42;15.40;76.60
62573;DHT22;48626;51.678;5.806;2022-09-29T16:39:15;15.20;78.30
62573;DHT22;48626;51.678;5.806;2022-09-29T16:41:42;15.20;78.90
62573;DHT22;48626;51.678;5.806;2022-09-29T16:49:16;14.80;80.20
62573;DHT22;48626;51.678;5.806;2022-09-29T16:51:45;14.70;80.70
62573;DHT22;48626;51.678;5.806;2022-09-29T16:54:19;14.50;81.00
62573;DHT22;48626;51.678;5.806;2022-09-29T16:56:46;14.40;81.30
62573;DHT22;48626;51.678;5.806;2022-09-29T16:59:15;14.30;81.60
62573;DHT22;48626;51.678;5.806;2022-09-29T17:01:42;14.20;82.10
62573;DHT22;48626;51.678;5.806;2022-09-29T17:04:10;14.10;82.60
62573;DHT22;48626;51.678;5.806;2022-09-29T17:06:36;14.00;83.00
62573;DHT22;48626;51.678;5.806;2022-09-29T17:09:03;13.90;83.40
62573;DHT22;48626;51.678;5.806;2022-09-29T17:11:29;13.80;83.70
62573;DHT22;48626;51.678;5.806;2022-09-29T17:13:55;13.70;84.10
62573;DHT22;48626;51.678;5.806;2022-09-29T17:16:24;13.60;84.50
62573;DHT22;48626;51.678;5.806;2022-09-29T17:18:51;13.40;84.80
62573;DHT22;48626;51.678;5.806;2022-09-29T17:21:18;13.40;85.30
62573;DHT22;48626;51.678;5.806;2022-09-29T17:23:45;13.30;85.80
62573;DHT22;48626;51.678;5.806;2022-09-29T17:26:20;13.20;86.20
62573;DHT22;48626;51.678;5.806;2022-09-29T17:29:05;13.10;86.80
62573;DHT22;48626;51.678;5.806;2022-09-29T17:31:31;13.00;87.50
62573;DHT22;48626;51.678;5.806;2022-09-29T17:33:57;12.90;88.00
62573;DHT22;48626;51.678;5.806;2022-09-29T17:36:22;12.80;88.60
62573;DHT22;48626;51.678;5.806;2022-09-29T17:38:49;12.80;89.00
62573;DHT22;48626;51.678;5.806;2022-09-29T17:41:16;12.70;89.50
62573;DHT22;48626;51.678;5.806;2022-09-29T17:43:43;12.60;89.90
62573;DHT22;48626;51.678;5.806;2022-09-29T17:46:13;12.50;90.20
62573;DHT22;48626;51.678;5.806;2022-09-29T17:48:39;12.40;90.30
62573;DHT22;48626;51.678;5.806;2022-09-29T17:51:09;12.40;90.50
62573;DHT22;48626;51.678;5.806;2022-09-29T17:53:36;12.30;90.80
62573;DHT22;48626;51.678;5.806;2022-09-29T17:56:02;12.20;91.20
62573;DHT22;48626;51.678;5.806;2022-09-29T17:58:29;12.20;91.00
62573;DHT22;48626;51.678;5.806;2022-09-29T18:00:56;12.10;91.20
62573;DHT22;48626;51.678;5.806;2022-09-29T18:03:22;12.10;91.70
62573;DHT22;48626;51.678;5.806;2022-09-29T18:05:52;12.00;91.80
62573;DHT22;48626;51.678;5.806;2022-09-29T18:08:21;12.00;91.90
62573;DHT22;48626;51.678;5.806;2022-09-29T18:10:55;11.90;92.00
62573;DHT22;48626;51.678;5.806;2022-09-29T18:13:23;11.90;92.20
62573;DHT22;48626;51.678;5.806;2022-09-29T18:15:49;11.80;92.30
62573;DHT22;48626;51.678;5.806;2022-09-29T18:18:19;11.70;92.50
62573;DHT22;48626;51.678;5.806;2022-09-29T18:20:45;11.70;92.70
62573;DHT22;48626;51.678;5.806;2022-09-29T18:23:12;11.60;92.60
62573;DHT22;48626;51.678;5.806;2022-09-29T18:25:41;11.50;93.00
62573;DHT22;48626;51.678;5.806;2022-09-29T18:28:10;11.50;93.20
62573;DHT22;48626;51.678;5.806;2022-09-29T18:30:36;11.50;93.60
62573;DHT22;48626;51.678;5.806;2022-09-29T18:33:05;11.40;93.60
62573;DHT22;48626;51.678;5.806;2022-09-29T18:35:34;11.40;93.60
62573;DHT22;48626;51.678;5.806;2022-09-29T18:38:01;11.30;93.60
62573;DHT22;48626;51.678;5.806;2022-09-29T18:40:29;11.20;93.60
62573;DHT22;48626;51.678;5.806;2022-09-29T18:42:55;11.20;93.70
62573;DHT22;48626;51.678;5.806;2022-09-29T18:45:26;11.10;93.80
62573;DHT22;48626;51.678;5.806;2022-09-29T18:47:54;11.00;93.90
62573;DHT22;48626;51.678;5.806;2022-09-29T18:50:28;11.00;94.00
62573;DHT22;48626;51.678;5.806;2022-09-29T18:52:55;10.90;94.20
62573;DHT22;48626;51.678;5.806;2022-09-29T18:55:23;10.90;94.30
62573;DHT22;48626;51.678;5.806;2022-09-29T18:57:50;10.90;94.40
62573;DHT22;48626;51.678;5.806;2022-09-29T19:00:19;10.80;94.50
62573;DHT22;48626;51.678;5.806;2022-09-29T19:02:46;10.80;94.60
62573;DHT22;48626;51.678;5.806;2022-09-29T19:05:18;10.70;94.70
62573;DHT22;48626;51.678;5.806;2022-09-29T19:07:46;10.70;94.80
62573;DHT22;48626;51.678;5.806;2022-09-29T19:10:13;10.70;94.90
62573;DHT22;48626;51.678;5.806;2022-09-29T19:12:40;10.60;94.90